Time;durP1;ratioP1;P1;durP2;ratioP2;P2;SDS_P1;SDS_P2;PMS_P1;PMS_P2;Temp;Humidity;BMP_temperature;BMP_pressure;BME280_temperature;BME280_humidity;BME280_pressure;Samples;Min_cycle;Max_cycle;Signal;HPM_P1;HPM_P2
2023/01/14 00:01:14;;;;;;;17.08;1.63;;;7.00;99.90;;;;;;4972486;28;20038;-64
2023/01/14 00:03:39;;;;;;;5.35;1.25;;;7.00;99.90;;;;;;4974018;28;20043;-64
2023/01/14 00:06:06;;;;;;;20.75;2.60;;;7.00;99.90;;;;;;4970956;28;20462;-63
2023/01/14 00:08:32;;;;;;;15.20;2.05;;;6.90;99.90;;;;;;4984454;28;20425;-64
2023/01/14 00:11:03;;;;;;;12.38;1.67;;;6.90;99.90;;;;;;4969290;28;20051;-64
2023/01/14 00:13:29;;;;;;;2.63;0.35;;;6.90;99.90;;;;;;4970266;28;20537;-64
2023/01/14 00:15:57;;;;;;;6.30;0.95;;;6.90;99.90;;;;;;4951607;28;20121;-63
2023/01/14 00:18:23;;;;;;;9.27;0.90;;;6.80;99.90;;;;;;4985672;28;20043;-63
2023/01/14 00:21:04;;;;;;;6.15;0.45;;;6.80;99.90;;;;;;4968878;28;20134;-64
2023/01/14 00:23:31;;;;;;;4.22;0.55;;;6.70;99.90;;;;;;4958360;28;20051;-63
2023/01/14 00:26:05;;;;;;;4.60;0.40;;;6.70;99.90;;;;;;4970175;28;20070;-63
2023/01/14 00:28:31;;;;;;;10.00;1.08;;;6.70;99.90;;;;;;4970341;28;20061;-64
2023/01/14 00:31:14;;;;;;;4.88;0.98;;;6.70;99.90;;;;;;4970611;28;20031;-64
2023/01/14 00:33:41;;;;;;;5.45;0.85;;;6.80;99.90;;;;;;4968885;28;20125;-64
2023/01/14 00:36:10;;;;;;;5.72;0.28;;;6.80;99.90;;;;;;4968778;28;20047;-64
2023/01/14 00:38:37;;;;;;;14.88;1.33;;;6.80;99.90;;;;;;4967986;28;20101;-64
2023/01/14 00:41:14;;;;;;;9.48;1.17;;;6.70;99.90;;;;;;4969538;28;20114;-64
2023/01/14 00:43:45;;;;;;;14.38;1.17;;;6.80;99.90;;;;;;4970245;28;20058;-64
2023/01/14 00:46:13;;;;;;;15.23;1.90;;;6.80;99.90;;;;;;4969547;28;20046;-64
2023/01/14 00:48:39;;;;;;;24.67;3.22;;;6.70;99.90;;;;;;4953878;28;20089;-64
2023/01/14 00:51:06;;;;;;;26.02;2.53;;;6.80;99.90;;;;;;4958285;28;20078;-64
2023/01/14 00:53:31;;;;;;;26.98;2.40;;;6.80;99.90;;;;;;4961868;28;20125;-64
2023/01/14 00:55:58;;;;;;;35.53;3.05;;;6.80;99.90;;;;;;4962103;28;20043;-64
2023/01/14 00:58:25;;;;;;;26.20;2.17;;;6.80;99.90;;;;;;4961959;28;20054;-64
2023/01/14 01:00:52;;;;;;;29.17;3.03;;;6.80;99.90;;;;;;4966445;28;20539;-64
2023/01/14 01:03:18;;;;;;;35.05;2.92;;;6.80;99.90;;;;;;4969547;28;20078;-64
2023/01/14 01:05:44;;;;;;;33.13;3.80;;;6.80;99.90;;;;;;4969681;28;20047;-64
2023/01/14 01:08:13;;;;;;;33.25;3.13;;;6.80;99.90;;;;;;4986274;28;20058;-64
2023/01/14 01:10:40;;;;;;;11.07;1.73;;;6.80;99.90;;;;;;4976144;28;20756;-64
2023/01/14 01:13:06;;;;;;;37.90;3.15;;;6.80;99.90;;;;;;4988416;28;20165;-64
2023/01/14 01:15:34;;;;;;;6.10;1.00;;;6.80;99.90;;;;;;4988810;28;20499;-64
2023/01/14 01:18:00;;;;;;;29.40;2.25;;;6.80;99.90;;;;;;4982070;28;20058;-64
2023/01/14 01:20:27;;;;;;;19.67;1.83;;;6.90;99.90;;;;;;4977857;28;20050;-64
2023/01/14 01:22:53;;;;;;;22.20;2.47;;;7.00;99.90;;;;;;4988788;28;20038;-64
2023/01/14 01:25:19;;;;;;;21.23;2.15;;;7.00;99.90;;;;;;4988403;28;20085;-64
2023/01/14 01:27:44;;;;;;;18.75;2.50;;;7.10;99.90;;;;;;4970959;28;20089;-64
2023/01/14 01:30:11;;;;;;;36.60;4.15;;;7.10;99.90;;;;;;4988320;28;20563;-64
2023/01/14 01:32:36;;;;;;;35.17;2.60;;;7.10;99.90;;;;;;4987953;28;20137;-64
2023/01/14 01:35:03;;;;;;;31.33;3.45;;;7.10;99.90;;;;;;4985520;28;20698;-64
2023/01/14 01:37:29;;;;;;;43.38;3.45;;;7.10;99.90;;;;;;4976971;28;20038;-64
2023/01/14 01:39:54;;;;;;;22.60;2.38;;;7.00;99.90;;;;;;4986804;28;20559;-64
2023/01/14 01:42:23;;;;;;;35.97;3.22;;;7.00;99.90;;;;;;4988275;28;20038;-64
2023/01/14 01:45:14;;;;;;;37.72;3.42;;;7.00;99.90;;;;;;4988778;28;20039;-64
2023/01/14 01:47:40;;;;;;;33.42;3.47;;;7.00;99.90;;;;;;4968214;28;20568;-64
2023/01/14 01:50:07;;;;;;;56.17;4.38;;;7.00;99.90;;;;;;4988288;28;20366;-64
2023/01/14 01:52:33;;;;;;;40.92;3.85;;;6.90;99.90;;;;;;4973876;28;20049;-64
2023/01/14 01:55:08;;;;;;;42.65;4.38;;;6.80;99.90;;;;;;4988137;28;20049;-64
2023/01/14 01:57:33;;;;;;;26.52;2.65;;;6.90;99.90;;;;;;4970427;28;20121;-64
2023/01/14 02:00:03;;;;;;;32.58;3.33;;;6.80;99.90;;;;;;4988058;28;20054;-64
2023/01/14 02:02:30;;;;;;;37.33;3.88;;;6.80;99.90;;;;;;4987469;28;20054;-64
2023/01/14 02:04:55;;;;;;;40.75;3.78;;;6.80;99.90;;;;;;4987914;28;20103;-64
2023/01/14 02:07:23;;;;;;;48.08;4.70;;;6.80;99.90;;;;;;4987857;28;20495;-64
2023/01/14 02:09:57;;;;;;;44.83;3.67;;;6.70;99.90;;;;;;4973128;28;20054;-64
2023/01/14 02:12:36;;;;;;;45.08;3.05;;;6.70;99.90;;;;;;4969970;28;20159;-64
2023/01/14 02:15:08;;;;;;;37.53;3.67;;;6.70;99.90;;;;;;4970017;28;20165;-65
2023/01/14 02:17:54;;;;;;;38.70;3.75;;;6.80;99.90;;;;;;4986546;28;20157;-64
2023/01/14 02:20:33;;;;;;;46.35;4.38;;;6.80;99.90;;;;;;4979491;28;20065;-64
2023/01/14 02:23:17;;;;;;;29.40;3.13;;;6.80;99.90;;;;;;4987481;28;20050;-64
2023/01/14 02:26:33;;;;;;;32.50;3.20;;;6.80;99.90;;;;;;4986871;28;20038;-64
2023/01/14 02:29:17;;;;;;;49.97;3.78;;;6.80;99.90;;;;;;4982416;28;20595;-64
2023/01/14 02:32:06;;;;;;;35.25;3.80;;;6.80;99.90;;;;;;4954643;28;20371;-64
2023/01/14 02:34:43;;;;;;;35.08;3.28;;;6.90;99.90;;;;;;4982743;28;20050;-64
2023/01/14 02:37:24;;;;;;;38.67;4.63;;;6.90;99.90;;;;;;4985884;28;20052;-64
2023/01/14 02:39:58;;;;;;;;;;;6.80;99.90;;;;;;4985936;28;20417;-64
2023/01/14 02:45:33;;;;;;;36.10;3.90;;;6.80;99.90;;;;;;4974023;28;20051;-64
2023/01/14 02:48:02;;;;;;;41.88;3.85;;;6.80;99.90;;;;;;4969768;28;20050;-64
2023/01/14 02:50:30;;;;;;;38.42;3.35;;;6.80;99.90;;;;;;4986942;28;20046;-64
2023/01/14 02:52:56;;;;;;;36.42;3.63;;;6.80;99.90;;;;;;4981568;28;20134;-64
2023/01/14 02:55:34;;;;;;;25.70;3.05;;;6.70;99.90;;;;;;4985338;28;20133;-64
2023/01/14 02:58:17;;;;;;;24.58;2.97;;;6.70;99.90;;;;;;4972922;28;20070;-64
2023/01/14 03:00:49;;;;;;;32.10;3.33;;;6.60;99.90;;;;;;4974762;28;20181;-64
2023/01/14 03:03:39;;;;;;;38.22;3.80;;;6.60;99.90;;;;;;4969839;28;20048;-64
2023/01/14 03:06:30;;;;;;;40.75;3.85;;;6.50;99.90;;;;;;4985366;28;20057;-64
2023/01/14 03:09:01;;;;;;;39.22;3.58;;;6.50;99.90;;;;;;4985235;28;20057;-64
2023/01/14 03:11:40;;;;;;;33.55;3.40;;;6.40;99.90;;;;;;4969708;28;20062;-64
2023/01/14 03:14:13;;;;;;;36.78;3.75;;;6.30;99.90;;;;;;4986891;28;20054;-64
2023/01/14 03:16:44;;;;;;;33.30;3.78;;;6.30;99.90;;;;;;4986981;28;20043;-64
2023/01/14 03:19:36;;;;;;;48.05;3.35;;;6.20;99.90;;;;;;4969623;28;20054;-64
2023/01/14 03:22:05;;;;;;;46.75;4.68;;;6.20;99.90;;;;;;4986670;28;20109;-64
2023/01/14 03:24:39;;;;;;;52.28;4.78;;;6.20;99.90;;;;;;4987639;28;20081;-64
2023/01/14 03:27:13;;;;;;;33.05;3.35;;;6.20;99.90;;;;;;4986994;28;20128;-64
2023/01/14 03:29:44;;;;;;;49.47;3.95;;;6.10;99.90;;;;;;4980391;28;20061;-64
2023/01/14 03:32:22;;;;;;;47.78;4.38;;;6.20;99.90;;;;;;4986440;28;20046;-64
2023/01/14 03:35:03;;;;;;;15.43;2.55;;;6.20;99.90;;;;;;4986730;28;20050;-64
2023/01/14 03:37:31;;;;;;;33.53;3.45;;;6.30;99.90;;;;;;4986506;28;20057;-64
2023/01/14 03:39:59;;;;;;;38.88;3.28;;;6.40;99.90;;;;;;4986442;28;20045;-64
2023/01/14 03:42:32;;;;;;;36.92;3.45;;;6.40;99.90;;;;;;4987474;28;20042;-64
2023/01/14 03:45:10;;;;;;;33.47;3.53;;;6.40;99.90;;;;;;4968972;28;20480;-65
2023/01/14 03:47:38;;;;;;;39.95;3.70;;;6.40;99.90;;;;;;4986753;28;20047;-64
2023/01/14 03:50:09;;;;;;;32.92;3.15;;;6.30;99.90;;;;;;4965072;28;20054;-64
2023/01/14 03:52:50;;;;;;;37.90;4.15;;;6.30;99.90;;;;;;4963207;28;20061;-64
2023/01/14 03:55:46;;;;;;;35.80;3.90;;;6.20;99.90;;;;;;4973392;28;20152;-64
2023/01/14 03:58:30;;;;;;;27.50;3.58;;;6.20;99.90;;;;;;4990587;28;20050;-64
2023/01/14 04:01:03;;;;;;;36.63;3.40;;;6.20;99.90;;;;;;4989749;28;20088;-64
2023/01/14 04:03:29;;;;;;;41.33;3.10;;;6.10;99.90;;;;;;4990539;28;20065;-64
2023/01/14 04:05:55;;;;;;;31.83;3.67;;;6.10;99.90;;;;;;4989404;28;20034;-64
2023/01/14 04:08:24;;;;;;;36.00;3.63;;;6.10;99.90;;;;;;4972129;28;20058;-64
2023/01/14 04:10:51;;;;;;;50.45;4.15;;;6.00;99.90;;;;;;4976165;28;20521;-64
2023/01/14 04:16:03;;;;;;;34.20;3.17;;;5.90;99.90;;;;;;4989416;28;20490;-64
2023/01/14 04:18:28;;;;;;;51.60;4.03;;;5.80;99.90;;;;;;4962335;28;20046;-64
2023/01/14 04:20:54;;;;;;;25.35;3.47;;;5.80;99.90;;;;;;4972255;28;20046;-64
2023/01/14 04:23:20;;;;;;;37.38;3.85;;;5.80;99.90;;;;;;4989507;28;20054;-64
2023/01/14 04:25:46;;;;;;;49.75;4.15;;;5.70;99.90;;;;;;4972339;28;20077;-64
2023/01/14 04:28:12;;;;;;;37.15;3.60;;;5.70;99.90;;;;;;4971739;28;20090;-64
2023/01/14 04:30:38;;;;;;;35.22;3.72;;;5.70;99.90;;;;;;4989742;28;20052;-64
2023/01/14 04:33:03;;;;;;;36.40;3.00;;;5.60;99.90;;;;;;4989159;28;20501;-64
2023/01/14 04:35:29;;;;;;;29.67;3.38;;;5.60;99.90;;;;;;4978358;28;20144;-64
2023/01/14 04:37:56;;;;;;;31.13;3.05;;;5.60;99.90;;;;;;4971512;28;20050;-64
2023/01/14 04:40:22;;;;;;;46.42;3.78;;;5.60;99.90;;;;;;4989415;28;20092;-64
2023/01/14 04:42:50;;;;;;;34.40;3.92;;;5.50;99.90;;;;;;4989990;28;20390;-64
2023/01/14 04:45:16;;;;;;;46.13;3.95;;;5.50;99.90;;;;;;4971650;28;20405;-64
2023/01/14 04:47:42;;;;;;;36.83;3.45;;;5.50;99.90;;;;;;4989319;28;20436;-64
2023/01/14 04:52:56;;;;;;;24.40;2.50;;;5.60;99.90;;;;;;4987228;28;20058;-64
2023/01/14 04:55:22;;;;;;;35.20;3.80;;;5.60;99.90;;;;;;4989221;28;20408;-64
2023/01/14 04:57:48;;;;;;;36.00;4.07;;;5.60;99.90;;;;;;4988686;28;20058;-64
2023/01/14 05:00:14;;;;;;;43.33;3.92;;;5.60;99.90;;;;;;4986978;28;20050;-64
2023/01/14 05:02:40;;;;;;;43.75;4.10;;;5.60;99.90;;;;;;4986124;28;20034;-64
2023/01/14 05:05:06;;;;;;;34.63;3.17;;;5.60;99.90;;;;;;4987835;28;20130;-64
2023/01/14 05:07:32;;;;;;;25.70;2.83;;;5.60;99.90;;;;;;4988409;28;20476;-64
2023/01/14 05:09:58;;;;;;;38.28;3.88;;;5.60;99.90;;;;;;4969700;28;20509;-64
2023/01/14 05:12:24;;;;;;;40.15;3.47;;;5.60;99.90;;;;;;4969226;28;20387;-64
2023/01/14 05:14:50;;;;;;;24.33;3.33;;;5.60;99.90;;;;;;4951329;28;20109;-64
2023/01/14 05:17:16;;;;;;;27.50;2.72;;;5.60;99.90;;;;;;4969039;28;20046;-64
2023/01/14 05:19:41;;;;;;;32.72;3.17;;;5.60;99.90;;;;;;4968523;28;20497;-64
2023/01/14 05:22:07;;;;;;;19.38;2.35;;;5.70;99.90;;;;;;4968372;28;20051;-64
2023/01/14 05:24:33;;;;;;;35.40;3.65;;;5.60;99.90;;;;;;4967534;28;20101;-64
2023/01/14 05:26:59;;;;;;;35.03;3.45;;;5.70;99.90;;;;;;4954504;28;20045;-64
2023/01/14 05:29:24;;;;;;;27.67;2.53;;;5.70;99.90;;;;;;4966759;28;20038;-64
2023/01/14 05:31:50;;;;;;;8.25;1.48;;;5.70;99.90;;;;;;4969019;28;20129;-64
2023/01/14 05:34:18;;;;;;;26.60;2.10;;;5.70;99.90;;;;;;4967203;28;20050;-64
2023/01/14 05:36:44;;;;;;;24.30;3.08;;;5.70;99.90;;;;;;4966742;28;20059;-65
2023/01/14 05:39:10;;;;;;;31.98;3.00;;;5.70;99.90;;;;;;4975268;28;20042;-64
2023/01/14 05:45:37;;;;;;;31.52;3.63;;;5.70;99.90;;;;;;4968593;28;20157;-64
2023/01/14 05:47:06;;;;;;;38.35;3.42;;;5.60;99.90;;;;;;4967937;28;20406;-64
2023/01/14 05:49:32;;;;;;;29.27;2.50;;;5.60;99.90;;;;;;4967784;28;20039;-65
2023/01/14 05:51:58;;;;;;;22.80;2.75;;;5.60;99.90;;;;;;4967075;28;20505;-64
2023/01/14 05:54:23;;;;;;;31.60;4.55;;;5.50;99.90;;;;;;4983294;28;20060;-64
2023/01/14 05:56:49;;;;;;;44.17;3.05;;;5.50;99.90;;;;;;4983682;28;20046;-64
2023/01/14 05:59:15;;;;;;;36.50;3.45;;;5.50;99.90;;;;;;4968073;28;20485;-64
2023/01/14 06:07:10;;;;;;;34.95;3.83;;;5.50;99.90;;;;;;4965938;28;20145;-64
2023/01/14 06:09:37;;;;;;;40.15;4.00;;;5.60;99.90;;;;;;4976139;28;20069;-65
2023/01/14 06:12:03;;;;;;;37.47;3.95;;;5.50;99.90;;;;;;4956817;28;20043;-64
2023/01/14 06:14:33;;;;;;;35.85;4.00;;;5.50;99.90;;;;;;4965473;28;20126;-64
2023/01/14 06:17:02;;;;;;;22.48;2.88;;;5.50;99.90;;;;;;4968008;28;20121;-65
2023/01/14 06:19:27;;;;;;;29.35;3.33;;;5.50;99.90;;;;;;4966471;28;20098;-64
2023/01/14 06:21:53;;;;;;;41.95;4.15;;;5.50;99.90;;;;;;4968683;28;20042;-64
2023/01/14 06:24:19;;;;;;;43.65;4.32;;;5.50;99.90;;;;;;4967609;28;20046;-64
2023/01/14 06:26:45;;;;;;;38.47;3.95;;;5.50;99.90;;;;;;4968731;28;20457;-64
2023/01/14 06:29:12;;;;;;;25.60;2.83;;;5.50;99.90;;;;;;4967647;28;20046;-64
2023/01/14 06:31:39;;;;;;;21.20;2.40;;;5.50;99.90;;;;;;4968320;28;20039;-64
2023/01/14 06:34:06;;;;;;;28.27;3.38;;;5.50;99.90;;;;;;4968498;28;20492;-64
2023/01/14 06:36:34;;;;;;;39.97;3.97;;;5.50;99.90;;;;;;4966853;28;20043;-64
2023/01/14 06:39:00;;;;;;;34.20;3.75;;;5.60;99.90;;;;;;4967070;28;20066;-64
2023/01/14 06:41:26;;;;;;;31.88;2.78;;;5.50;99.90;;;;;;4967582;28;20039;-64
2023/01/14 06:43:52;;;;;;;28.00;2.95;;;5.50;99.90;;;;;;4968139;28;20042;-64
2023/01/14 06:46:18;;;;;;;33.80;4.15;;;5.50;99.90;;;;;;4966244;28;20058;-64
2023/01/14 06:48:45;;;;;;;15.93;2.15;;;5.50;99.90;;;;;;4968438;28;20046;-64
2023/01/14 06:51:16;;;;;;;27.27;4.00;;;5.50;99.90;;;;;;4967823;28;20139;-64
2023/01/14 06:53:42;;;;;;;44.58;4.63;;;5.50;99.90;;;;;;4968026;28;20053;-64
2023/01/14 06:56:13;;;;;;;47.80;5.00;;;5.50;99.90;;;;;;4966258;28;20509;-64
2023/01/14 06:58:39;;;;;;;48.75;5.50;;;5.50;99.90;;;;;;4967202;28;20454;-64
2023/01/14 07:01:06;;;;;;;64.32;6.53;;;5.50;99.90;;;;;;4968294;28;20090;-64
2023/01/14 07:03:32;;;;;;;31.13;4.30;;;5.50;99.90;;;;;;4967373;28;20117;-64
2023/01/14 07:06:01;;;;;;;34.85;5.07;;;5.50;99.90;;;;;;4968157;28;20047;-64
2023/01/14 07:08:28;;;;;;;28.58;4.40;;;5.50;99.90;;;;;;4967004;28;20038;-64
2023/01/14 07:10:54;;;;;;;49.83;5.82;;;5.40;99.90;;;;;;4966023;28;20055;-64
2023/01/14 07:13:21;;;;;;;45.53;5.80;;;5.40;99.90;;;;;;4967373;28;20453;-64
2023/01/14 07:15:47;;;;;;;28.20;4.18;;;5.40;99.90;;;;;;4967427;28;20047;-64
2023/01/14 07:18:13;;;;;;;26.52;3.58;;;5.40;99.90;;;;;;4967674;28;20398;-64
2023/01/14 07:20:39;;;;;;;43.22;5.43;;;5.40;99.90;;;;;;4967803;28;20063;-64
2023/01/14 07:23:07;;;;;;;40.08;6.22;;;5.40;99.90;;;;;;4966895;28;20043;-64
2023/01/14 07:25:33;;;;;;;32.40;4.82;;;5.40;99.90;;;;;;4968430;28;20109;-64
2023/01/14 07:27:58;;;;;;;39.90;5.05;;;5.50;99.90;;;;;;4970266;28;20386;-64
2023/01/14 07:30:24;;;;;;;31.23;4.57;;;5.50;99.90;;;;;;4970823;28;20486;-64
2023/01/14 07:32:50;;;;;;;41.20;5.60;;;5.50;99.90;;;;;;4971420;28;20053;-64
2023/01/14 07:35:16;;;;;;;25.27;3.78;;;5.50;99.90;;;;;;4969514;28;20126;-64
2023/01/14 07:37:42;;;;;;;29.20;3.63;;;5.50;99.90;;;;;;4969756;28;20039;-64
2023/01/14 07:40:08;;;;;;;27.35;3.72;;;5.50;99.90;;;;;;4971750;28;20035;-64
2023/01/14 07:42:34;;;;;;;54.33;5.05;;;5.50;99.90;;;;;;4970937;28;20054;-64
2023/01/14 07:45:00;;;;;;;36.60;4.95;;;5.50;99.90;;;;;;4968141;28;20039;-64
2023/01/14 07:47:25;;;;;;;52.80;4.90;;;5.60;99.90;;;;;;4979032;28;20055;-64
2023/01/14 07:49:55;;;;;;;33.97;4.15;;;5.50;99.90;;;;;;4970949;28;20125;-64
2023/01/14 07:52:20;;;;;;;41.13;4.35;;;5.60;99.90;;;;;;4969610;28;20889;-64
2023/01/14 07:54:46;;;;;;;41.20;4.38;;;5.60;99.90;;;;;;4969728;28;20062;-64
2023/01/14 07:57:13;;;;;;;29.77;4.05;;;5.60;99.90;;;;;;4970969;28;20047;-64
2023/01/14 07:59:39;;;;;;;36.95;4.15;;;5.60;99.90;;;;;;4970241;28;20401;-64
2023/01/14 08:02:09;;;;;;;23.50;3.65;;;5.70;99.90;;;;;;4976704;28;20494;-64
2023/01/14 08:04:35;;;;;;;62.42;5.60;;;5.70;99.90;;;;;;4970512;28;20074;-64
2023/01/14 08:07:01;;;;;;;53.38;6.15;;;5.70;99.90;;;;;;4965869;28;20079;-64
2023/01/14 08:09:28;;;;;;;31.67;3.67;;;5.80;99.90;;;;;;4967041;28;20485;-64
2023/01/14 08:11:54;;;;;;;47.78;4.68;;;5.80;99.90;;;;;;4989350;28;20618;-64
2023/01/14 08:14:21;;;;;;;49.08;4.57;;;5.80;99.90;;;;;;4989955;28;20050;-64
2023/01/14 08:16:47;;;;;;;10.82;2.25;;;5.80;99.90;;;;;;4989762;28;20437;-64
2023/01/14 08:19:14;;;;;;;54.47;6.28;;;5.80;99.90;;;;;;4990255;28;20042;-64
2023/01/14 08:21:40;;;;;;;47.88;5.25;;;5.80;99.90;;;;;;4986099;28;20093;-64
2023/01/14 08:24:06;;;;;;;51.85;5.25;;;5.80;99.90;;;;;;4987910;28;20043;-64
2023/01/14 08:26:33;;;;;;;50.13;5.57;;;5.80;99.90;;;;;;4982299;28;20039;-64
2023/01/14 08:28:58;;;;;;;51.90;5.82;;;5.90;99.90;;;;;;4981609;28;20540;-64
2023/01/14 08:31:24;;;;;;;55.22;4.78;;;5.90;99.90;;;;;;4988856;28;20125;-64
2023/01/14 08:33:50;;;;;;;25.27;3.63;;;5.90;99.90;;;;;;4989373;28;20413;-64
2023/01/14 08:36:17;;;;;;;29.08;3.83;;;5.90;99.90;;;;;;4989557;28;20042;-64
2023/01/14 08:38:50;;;;;;;43.15;4.53;;;5.90;99.90;;;;;;4988327;28;20678;-64
2023/01/14 08:41:17;;;;;;;51.67;6.45;;;5.90;99.90;;;;;;4989526;28;20061;-64
2023/01/14 08:43:46;;;;;;;27.50;3.47;;;5.90;99.90;;;;;;4989128;28;20401;-64
2023/01/14 08:46:12;;;;;;;39.72;4.82;;;6.00;99.90;;;;;;4988477;28;20050;-64
2023/01/14 08:48:37;;;;;;;47.10;5.05;;;6.00;99.90;;;;;;4959375;28;20101;-64
2023/01/14 08:51:07;;;;;;;31.42;3.65;;;6.00;99.90;;;;;;4962084;28;20124;-64
2023/01/14 08:53:35;;;;;;;40.00;4.65;;;6.00;99.90;;;;;;4975929;28;20102;-64
2023/01/14 08:56:03;;;;;;;38.22;3.92;;;6.00;99.90;;;;;;4981034;28;20129;-64
2023/01/14 08:58:29;;;;;;;34.92;3.80;;;6.00;99.90;;;;;;4984640;28;20108;-64
2023/01/14 09:01:00;;;;;;;23.30;2.70;;;6.10;99.90;;;;;;4976447;28;20518;-64
2023/01/14 09:03:30;;;;;;;22.27;2.78;;;6.10;99.90;;;;;;4960325;28;20500;-64
2023/01/14 09:06:00;;;;;;;14.60;2.25;;;6.00;99.90;;;;;;4970304;28;20441;-64
2023/01/14 09:17:05;;;;;;;37.67;3.92;;;6.10;99.90;;;;;;4988055;28;20408;-64
2023/01/14 09:19:51;;;;;;;28.58;3.22;;;6.10;99.90;;;;;;4985435;28;20038;-64
2023/01/14 09:22:28;;;;;;;41.17;4.57;;;6.10;99.90;;;;;;4978681;28;20427;-64
2023/01/14 09:24:54;;;;;;;31.63;4.15;;;6.10;99.90;;;;;;4987518;28;20041;-64
2023/01/14 09:27:22;;;;;;;34.20;4.07;;;6.10;99.90;;;;;;4987996;28;20374;-64
2023/01/14 09:29:48;;;;;;;43.83;4.75;;;6.10;99.90;;;;;;4986923;28;20074;-64
2023/01/14 09:32:15;;;;;;;40.38;3.90;;;6.10;99.90;;;;;;4988879;28;20054;-64
2023/01/14 09:34:48;;;;;;;25.63;3.60;;;6.10;99.90;;;;;;4985133;28;20400;-64
2023/01/14 09:37:22;;;;;;;26.92;3.53;;;6.10;99.90;;;;;;4988252;28;20077;-64
2023/01/14 09:39:52;;;;;;;24.55;2.63;;;6.10;99.90;;;;;;4967403;28;20389;-63
2023/01/14 09:42:34;;;;;;;9.13;2.20;;;6.10;99.90;;;;;;4971795;28;20066;-64
2023/01/14 09:45:22;;;;;;;41.13;4.55;;;6.10;99.90;;;;;;4971446;28;20042;-64
2023/01/14 09:47:48;;;;;;;26.20;2.80;;;6.10;99.90;;;;;;4979675;28;20047;-64
2023/01/14 09:50:45;;;;;;;27.80;3.65;;;6.10;99.90;;;;;;4969817;28;20073;-63
2023/01/14 09:53:22;;;;;;;37.22;3.67;;;6.10;99.90;;;;;;4941890;28;20092;-64
2023/01/14 09:56:04;;;;;;;13.25;2.05;;;6.20;99.90;;;;;;4985004;28;20046;-64
2023/01/14 09:58:37;;;;;;;30.73;4.07;;;6.10;99.90;;;;;;4974659;28;20054;-64
2023/01/14 10:01:26;;;;;;;20.38;2.58;;;6.20;99.90;;;;;;4991361;28;20057;-64
2023/01/14 10:04:15;;;;;;;22.30;2.80;;;6.20;99.90;;;;;;4987324;28;20043;-63
2023/01/14 10:06:43;;;;;;;24.02;3.45;;;6.20;99.90;;;;;;4986949;28;20420;-64
2023/01/14 10:09:19;;;;;;;23.65;2.88;;;6.20;99.90;;;;;;4984550;28;20498;-64
2023/01/14 10:11:46;;;;;;;15.30;2.17;;;6.20;99.90;;;;;;4960771;28;20069;-63
2023/01/14 10:14:20;;;;;;;10.23;1.98;;;6.20;99.90;;;;;;4968933;28;20145;-64
2023/01/14 10:16:52;;;;;;;20.98;2.88;;;6.20;99.90;;;;;;4987470;28;20404;-63
2023/01/14 10:19:34;;;;;;;16.17;1.85;;;6.20;99.90;;;;;;4971710;28;20101;-63
2023/01/14 10:22:18;;;;;;;33.53;3.75;;;6.20;99.90;;;;;;4984427;28;20082;-64
2023/01/14 10:24:44;;;;;;;12.93;1.63;;;6.30;99.90;;;;;;4985085;28;20347;-63
2023/01/14 10:27:14;;;;;;;17.90;2.28;;;6.30;99.90;;;;;;4986097;28;20137;-63
2023/01/14 10:29:41;;;;;;;11.68;1.65;;;6.30;99.90;;;;;;4979166;28;20056;-64
2023/01/14 10:32:12;;;;;;;9.38;1.02;;;6.30;99.90;;;;;;4985085;28;20042;-64
2023/01/14 10:34:57;;;;;;;29.30;3.20;;;6.30;99.90;;;;;;4982878;28;20133;-64
2023/01/14 10:37:23;;;;;;;7.00;1.27;;;6.30;99.90;;;;;;4967460;28;20497;-63
2023/01/14 10:39:52;;;;;;;2.42;1.08;;;6.30;99.90;;;;;;4961078;28;20038;-63
2023/01/14 10:42:23;;;;;;;5.70;1.35;;;6.30;99.90;;;;;;4969927;28;20080;-64
2023/01/14 10:44:50;;;;;;;13.15;1.80;;;6.30;99.90;;;;;;4968947;28;20051;-64
2023/01/14 10:47:17;;;;;;;7.28;0.77;;;6.40;99.90;;;;;;4986449;28;20180;-64
2023/01/14 10:49:54;;;;;;;24.50;3.58;;;6.40;99.90;;;;;;4980692;28;20405;-64
2023/01/14 10:52:20;;;;;;;10.80;1.27;;;6.40;99.90;;;;;;4986790;28;20520;-64
2023/01/14 10:55:14;;;;;;;17.45;2.92;;;6.40;99.90;;;;;;4986192;28;20046;-63
2023/01/14 10:57:59;;;;;;;18.42;2.92;;;6.50;99.90;;;;;;4986881;28;20420;-64
2023/01/14 11:00:38;;;;;;;12.20;1.42;;;6.50;99.90;;;;;;4978776;28;20046;-64
2023/01/14 11:03:09;;;;;;;18.25;2.78;;;6.50;99.90;;;;;;4981131;28;20050;-64
2023/01/14 11:05:37;;;;;;;1.75;0.95;;;6.50;99.90;;;;;;4980362;28;20050;-64
2023/01/14 11:08:35;;;;;;;6.28;1.42;;;6.60;99.90;;;;;;4978457;28;20556;-63
2023/01/14 11:11:14;;;;;;;7.97;1.13;;;6.70;99.90;;;;;;4974301;28;20096;-64
2023/01/14 11:13:44;;;;;;;6.03;0.80;;;6.60;99.90;;;;;;4978585;28;20129;-63
2023/01/14 11:16:25;;;;;;;10.27;1.85;;;6.70;99.90;;;;;;4978457;28;20599;-64
2023/01/14 11:19:14;;;;;;;12.10;1.52;;;6.70;99.90;;;;;;4976342;28;20097;-64
2023/01/14 11:21:42;;;;;;;1.42;0.57;;;6.70;99.90;;;;;;4972017;28;20053;-64
2023/01/14 11:24:34;;;;;;;2.95;1.30;;;6.70;99.90;;;;;;4985325;28;20056;-64
2023/01/14 11:27:05;;;;;;;4.30;1.10;;;6.70;99.90;;;;;;4978786;28;20527;-64
2023/01/14 11:29:32;;;;;;;;;;;6.70;99.90;;;;;;4985181;28;20408;-64
2023/01/14 11:32:07;;;;;;;3.60;1.27;;;6.80;99.90;;;;;;4975675;28;19926;-64
2023/01/14 11:34:38;;;;;;;5.70;1.05;;;6.80;99.90;;;;;;4970514;28;20050;-64
2023/01/14 11:37:10;;;;;;;10.25;1.63;;;6.80;99.90;;;;;;4975945;28;20074;-64
2023/01/14 11:39:38;;;;;;;6.63;1.30;;;6.90;99.90;;;;;;4974959;28;20078;-64
2023/01/14 11:42:26;;;;;;;4.40;0.80;;;6.90;99.90;;;;;;4978068;28;20030;-63
2023/01/14 11:45:11;;;;;;;2.47;0.75;;;6.90;99.90;;;;;;4978039;28;20046;-64
2023/01/14 11:47:55;;;;;;;6.63;1.33;;;7.00;99.90;;;;;;4990694;28;20048;-64
2023/01/14 11:50:26;;;;;;;3.28;1.02;;;7.00;99.90;;;;;;4968631;28;20176;-64
2023/01/14 11:53:00;;;;;;;2.95;0.93;;;7.00;99.90;;;;;;4980668;28;20043;-63
2023/01/14 11:55:28;;;;;;;8.23;1.27;;;7.00;99.90;;;;;;4982416;28;20042;-63
2023/01/14 11:58:15;;;;;;;2.83;0.88;;;7.00;99.90;;;;;;4967830;28;20038;-64
2023/01/14 12:00:45;;;;;;;2.13;1.02;;;7.00;99.90;;;;;;4974873;28;20046;-63
2023/01/14 12:03:34;;;;;;;3.60;1.52;;;7.10;99.90;;;;;;4974194;28;20050;-63
2023/01/14 12:06:27;;;;;;;3.13;1.00;;;7.00;99.90;;;;;;4974209;28;20049;-63
2023/01/14 12:08:57;;;;;;;2.40;1.00;;;7.00;99.90;;;;;;4973053;28;20070;-64
2023/01/14 12:11:28;;;;;;;9.63;0.88;;;7.00;99.90;;;;;;4971797;28;20134;-63
2023/01/14 12:16:56;;;;;;;4.22;0.95;;;7.10;99.90;;;;;;4979960;28;20130;-63
2023/01/14 12:19:41;;;;;;;6.25;1.45;;;7.10;99.90;;;;;;4975005;28;20563;-63
2023/01/14 12:22:15;;;;;;;8.82;1.17;;;7.10;99.90;;;;;;4963307;28;20043;-63
2023/01/14 12:25:03;;;;;;;3.75;0.50;;;7.10;99.90;;;;;;4976925;28;20556;-64
2023/01/14 12:27:46;;;;;;;3.05;0.68;;;7.10;99.90;;;;;;4976887;28;20054;-63
2023/01/14 12:30:15;;;;;;;6.47;0.90;;;7.10;99.90;;;;;;4979178;28;20520;-63
2023/01/14 12:32:55;;;;;;;5.05;0.80;;;7.10;99.90;;;;;;4980240;28;20046;-64
2023/01/14 12:35:23;;;;;;;3.40;0.82;;;7.10;99.90;;;;;;4974833;28;20047;-63
2023/01/14 12:37:56;;;;;;;4.53;0.93;;;7.10;99.90;;;;;;4987186;28;20042;-63
2023/01/14 12:46:14;;;;;;;1.15;0.60;;;7.20;99.90;;;;;;4973865;28;20126;-64
2023/01/14 12:48:40;;;;;;;5.38;0.80;;;7.30;99.90;;;;;;4981614;28;20043;-63
2023/01/14 12:51:20;;;;;;;1.05;0.60;;;7.20;99.90;;;;;;4975153;28;20045;-63
2023/01/14 12:53:57;;;;;;;2.03;0.85;;;7.30;99.90;;;;;;4973218;28;20173;-63
2023/01/14 12:56:34;;;;;;;1.40;0.65;;;7.30;99.90;;;;;;4976402;28;20136;-64
2023/01/14 12:59:23;;;;;;;2.90;0.73;;;7.30;99.90;;;;;;4981759;28;20125;-64
2023/01/14 13:01:56;;;;;;;6.47;1.25;;;7.40;99.90;;;;;;4972435;28;20058;-64
2023/01/14 13:04:43;;;;;;;1.33;0.45;;;7.40;99.90;;;;;;4987391;28;20118;-64
2023/01/14 13:07:18;;;;;;;1.33;0.60;;;7.40;99.90;;;;;;4980865;28;20046;-64
2023/01/14 13:09:51;;;;;;;0.57;0.40;;;7.40;99.90;;;;;;4980260;28;20043;-64
2023/01/14 13:12:25;;;;;;;2.38;0.50;;;7.40;99.90;;;;;;4974407;28;20054;-63
2023/01/14 13:14:54;;;;;;;4.38;0.75;;;7.50;99.90;;;;;;4971790;28;20035;-63
2023/01/14 13:17:35;;;;;;;2.17;0.60;;;7.50;99.90;;;;;;4986605;28;20031;-64
2023/01/14 13:20:15;;;;;;;1.67;0.30;;;7.50;99.90;;;;;;4983823;28;20080;-63
2023/01/14 13:22:46;;;;;;;3.90;0.80;;;7.50;99.90;;;;;;4988864;28;20034;-63
2023/01/14 13:25:48;;;;;;;0.52;0.35;;;7.50;99.90;;;;;;4987582;28;20053;-64
2023/01/14 13:28:15;;;;;;;1.95;0.57;;;7.60;99.90;;;;;;4908408;29;20056;-64
2023/01/14 13:30:53;;;;;;;4.28;0.80;;;7.60;99.90;;;;;;4972921;28;20058;-64
2023/01/14 13:33:26;;;;;;;6.68;0.85;;;7.70;99.90;;;;;;4978147;28;20340;-64
2023/01/14 13:36:13;;;;;;;2.45;0.85;;;7.70;99.90;;;;;;4966685;28;20046;-64
2023/01/14 13:39:10;;;;;;;1.73;0.77;;;7.80;99.90;;;;;;4983322;28;20057;-64
2023/01/14 13:41:43;;;;;;;4.13;0.73;;;7.80;99.90;;;;;;4950648;28;20142;-64
2023/01/14 13:44:31;;;;;;;0.40;0.30;;;7.80;99.90;;;;;;4978767;28;20414;-64
2023/01/14 13:47:16;;;;;;;1.52;0.40;;;7.80;99.90;;;;;;4986493;28;20119;-64